createdAt,value
2022-08-17T00:01:51.522Z,100.00
2022-08-17T00:04:20.002Z,100.00
2022-08-17T00:06:49.054Z,100.00
2022-08-17T00:09:18.780Z,100.00
2022-08-17T00:12:41.620Z,100.00
2022-08-17T00:14:33.264Z,100.00
2022-08-17T00:16:59.878Z,100.00
2022-08-17T00:19:26.663Z,100.00
2022-08-17T00:21:56.400Z,100.00
2022-08-17T00:24:41.425Z,100.00
2022-08-17T00:27:07.892Z,100.00
2022-08-17T00:29:34.512Z,100.00
2022-08-17T00:32:01.528Z,100.00
2022-08-17T00:34:48.470Z,100.00
2022-08-17T00:37:14.890Z,100.00
2022-08-17T00:39:41.511Z,100.00
2022-08-17T00:42:15.195Z,100.00
2022-08-17T00:44:41.507Z,100.00
2022-08-17T00:47:08.101Z,100.00
2022-08-17T00:49:34.649Z,100.00
2022-08-17T00:52:03.739Z,100.00
2022-08-17T00:54:41.820Z,100.00
2022-08-17T00:57:13.883Z,100.00
2022-08-17T00:59:43.838Z,100.00
2022-08-17T01:02:12.478Z,100.00
2022-08-17T01:04:39.055Z,100.00
2022-08-17T01:07:05.899Z,100.00
2022-08-17T01:09:33.293Z,100.00
2022-08-17T01:11:59.987Z,100.00
2022-08-17T01:14:27.000Z,100.00
2022-08-17T01:16:55.036Z,100.00
2022-08-17T01:19:23.722Z,100.00
2022-08-17T01:21:58.594Z,100.00
2022-08-17T01:24:26.876Z,100.00
2022-08-17T01:26:53.447Z,100.00
2022-08-17T01:29:24.356Z,100.00
2022-08-17T01:31:53.867Z,100.00
2022-08-17T01:34:20.424Z,100.00
2022-08-17T01:36:48.095Z,100.00
2022-08-17T01:39:21.139Z,100.00
2022-08-17T01:41:48.619Z,100.00
2022-08-17T01:44:16.035Z,100.00
2022-08-17T01:46:42.464Z,100.00
2022-08-17T01:49:10.292Z,100.00
2022-08-17T01:51:37.235Z,100.00
2022-08-17T01:54:10.478Z,100.00
2022-08-17T01:56:38.885Z,100.00
2022-08-17T01:59:05.599Z,100.00
2022-08-17T02:01:34.083Z,100.00
2022-08-17T02:04:01.781Z,100.00
2022-08-17T02:06:52.770Z,100.00
2022-08-17T02:09:19.075Z,100.00
2022-08-17T02:11:49.906Z,100.00
2022-08-17T02:14:16.861Z,100.00
2022-08-17T02:16:43.985Z,100.00
2022-08-17T02:19:14.984Z,100.00
2022-08-17T02:21:43.102Z,100.00
2022-08-17T02:24:11.833Z,100.00
2022-08-17T02:26:38.220Z,100.00
2022-08-17T02:29:04.727Z,100.00
2022-08-17T02:31:31.421Z,100.00
2022-08-17T02:34:04.034Z,100.00
2022-08-17T02:36:32.054Z,100.00
2022-08-17T02:38:59.530Z,100.00
2022-08-17T02:41:26.067Z,100.00
2022-08-17T02:43:52.486Z,100.00
2022-08-17T02:46:19.199Z,100.00
2022-08-17T02:48:45.597Z,100.00
2022-08-17T02:51:12.176Z,100.00
2022-08-17T02:53:38.732Z,100.00
2022-08-17T02:56:05.262Z,100.00
2022-08-17T02:58:34.762Z,100.00
2022-08-17T03:01:03.207Z,100.00
2022-08-17T03:03:29.699Z,100.00
2022-08-17T03:05:56.369Z,100.00
2022-08-17T03:08:22.733Z,100.00
2022-08-17T03:10:49.432Z,100.00
2022-08-17T03:13:15.906Z,100.00
2022-08-17T03:15:43.849Z,100.00
2022-08-17T03:18:19.000Z,100.00
2022-08-17T03:20:51.894Z,100.00
2022-08-17T03:23:18.363Z,100.00
2022-08-17T03:25:44.772Z,100.00
2022-08-17T03:28:12.553Z,100.00
2022-08-17T03:30:39.670Z,100.00
2022-08-17T03:33:08.073Z,100.00
2022-08-17T03:35:35.293Z,100.00
2022-08-17T03:38:01.717Z,100.00
2022-08-17T03:40:39.886Z,100.00
2022-08-17T03:43:15.566Z,100.00
2022-08-17T03:45:42.775Z,100.00
2022-08-17T03:48:10.398Z,100.00
2022-08-17T03:50:36.942Z,100.00
2022-08-17T03:53:06.301Z,100.00
2022-08-17T03:55:36.424Z,100.00
2022-08-17T03:58:03.197Z,100.00
2022-08-17T04:00:29.726Z,100.00
2022-08-17T04:02:56.157Z,100.00
2022-08-17T04:05:22.534Z,100.00
2022-08-17T04:07:49.361Z,100.00
2022-08-17T04:10:15.984Z,100.00
2022-08-17T04:12:47.260Z,100.00
2022-08-17T04:15:13.977Z,100.00
2022-08-17T04:17:40.489Z,100.00
2022-08-17T04:20:07.324Z,100.00
2022-08-17T04:22:34.460Z,100.00
2022-08-17T04:25:03.213Z,100.00
2022-08-17T04:27:29.931Z,100.00
2022-08-17T04:29:56.455Z,100.00
2022-08-17T04:33:04.252Z,100.00
2022-08-17T04:35:10.245Z,100.00
2022-08-17T04:37:36.675Z,100.00
2022-08-17T04:40:04.352Z,100.00
2022-08-17T04:42:31.047Z,100.00
2022-08-17T04:44:57.558Z,100.00
2022-08-17T04:47:24.114Z,100.00
2022-08-17T04:49:50.823Z,100.00
2022-08-17T04:52:29.775Z,100.00
2022-08-17T04:55:04.742Z,100.00
2022-08-17T04:57:39.370Z,100.00
2022-08-17T05:00:08.695Z,100.00
2022-08-17T05:02:50.041Z,100.00
2022-08-17T05:05:22.809Z,100.00
2022-08-17T05:07:52.815Z,100.00
2022-08-17T05:10:19.734Z,100.00
2022-08-17T05:12:46.161Z,100.00
2022-08-17T05:15:13.219Z,100.00
2022-08-17T05:17:39.580Z,100.00
2022-08-17T05:20:06.345Z,100.00
2022-08-17T05:22:32.674Z,100.00
2022-08-17T05:24:59.088Z,100.00
2022-08-17T05:27:35.256Z,100.00
2022-08-17T05:30:03.700Z,100.00
2022-08-17T05:32:37.975Z,100.00
2022-08-17T05:35:06.928Z,95.66
2022-08-17T05:37:33.640Z,92.78
2022-08-17T05:40:00.140Z,94.66
2022-08-17T05:42:26.868Z,92.96
2022-08-17T05:44:56.581Z,91.95
2022-08-17T05:47:23.934Z,88.49
2022-08-17T05:49:51.626Z,88.19
2022-08-17T05:52:23.024Z,91.14
2022-08-17T05:54:57.234Z,90.96
2022-08-17T05:57:36.871Z,88.08
2022-08-17T06:00:08.719Z,84.86
2022-08-17T06:02:47.074Z,81.53
2022-08-17T06:05:14.083Z,81.25
2022-08-17T06:07:43.423Z,80.73
2022-08-17T06:10:17.007Z,82.84
2022-08-17T06:13:06.367Z,84.09
2022-08-17T06:15:54.359Z,81.94
2022-08-17T06:18:22.927Z,83.34
2022-08-17T06:20:51.820Z,82.80
2022-08-17T06:23:25.606Z,83.55
2022-08-17T06:25:55.508Z,83.79
2022-08-17T06:28:31.732Z,83.40
2022-08-17T06:31:02.307Z,81.56
2022-08-17T06:33:34.605Z,80.16
2022-08-17T06:36:10.251Z,80.21
2022-08-17T06:38:46.927Z,77.78
2022-08-17T06:41:25.233Z,77.65
2022-08-17T06:44:06.098Z,77.36
2022-08-17T06:46:43.888Z,75.64
2022-08-17T06:49:28.133Z,73.36
2022-08-17T06:52:01.101Z,73.15
2022-08-17T06:54:46.319Z,72.22
2022-08-17T06:57:12.687Z,72.68
2022-08-17T06:59:56.397Z,73.36
2022-08-17T07:02:52.811Z,73.86
2022-08-17T07:05:21.544Z,71.93
2022-08-17T07:07:52.641Z,71.50
2022-08-17T07:10:19.709Z,73.81
2022-08-17T07:12:47.553Z,74.24
2022-08-17T07:15:16.330Z,74.85
2022-08-17T07:17:47.474Z,74.65
2022-08-17T07:20:20.076Z,73.86
2022-08-17T07:23:00.076Z,73.03
2022-08-17T07:25:27.778Z,71.64
2022-08-17T07:27:56.158Z,68.89
2022-08-17T07:30:24.659Z,68.56
2022-08-17T07:32:51.035Z,66.53
2022-08-17T07:35:20.883Z,66.47
2022-08-17T07:38:07.693Z,66.20
2022-08-17T07:40:55.152Z,65.59
2022-08-17T07:43:22.365Z,63.21
2022-08-17T07:46:05.398Z,63.37
2022-08-17T07:48:35.612Z,63.26
2022-08-17T07:51:02.023Z,62.97
2022-08-17T07:53:28.887Z,63.03
2022-08-17T07:55:55.180Z,64.23
2022-08-17T07:58:22.699Z,63.64
2022-08-17T08:01:12.885Z,65.21
2022-08-17T08:03:42.421Z,65.29
2022-08-17T08:06:18.606Z,64.60
2022-08-17T08:08:50.002Z,63.95
2022-08-17T08:11:28.747Z,65.43
2022-08-17T08:13:55.399Z,66.23
2022-08-17T08:16:28.640Z,67.80
2022-08-17T08:18:58.006Z,66.30
2022-08-17T08:21:32.255Z,65.22
2022-08-17T08:24:17.364Z,65.33
2022-08-17T08:26:47.221Z,64.13
2022-08-17T08:29:13.980Z,62.47
2022-08-17T08:31:52.320Z,61.46
2022-08-17T08:35:00.514Z,62.00
2022-08-17T08:37:32.722Z,57.73
2022-08-17T08:40:19.873Z,57.14
2022-08-17T08:42:53.144Z,55.26
2022-08-17T08:45:32.751Z,50.31
2022-08-17T08:48:22.905Z,50.16
2022-08-17T08:51:05.233Z,50.23
2022-08-17T08:53:49.915Z,53.02
2022-08-17T08:56:22.903Z,53.91
2022-08-17T08:58:56.028Z,54.82
2022-08-17T09:01:22.471Z,54.60
2022-08-17T09:03:53.060Z,55.31
2022-08-17T09:06:37.829Z,55.36
2022-08-17T09:09:15.627Z,54.85
2022-08-17T09:12:02.220Z,55.29
2022-08-17T09:14:45.073Z,57.21
2022-08-17T09:17:22.680Z,58.33
2022-08-17T09:19:59.928Z,59.54
2022-08-17T09:22:26.736Z,59.41
2022-08-17T09:24:56.735Z,60.34
2022-08-17T09:27:48.252Z,59.54
2022-08-17T09:30:14.817Z,59.34
2022-08-17T09:32:42.967Z,60.40
2022-08-17T09:35:36.683Z,58.40
2022-08-17T09:38:06.940Z,59.29
2022-08-17T09:40:45.107Z,60.04
2022-08-17T09:43:26.165Z,61.76
2022-08-17T09:45:56.153Z,61.93
2022-08-17T09:48:28.411Z,61.00
2022-08-17T09:51:04.850Z,61.98
2022-08-17T09:53:33.370Z,61.13
2022-08-17T09:56:18.539Z,60.46
2022-08-17T09:59:03.809Z,59.96
2022-08-17T10:01:36.845Z,57.28
2022-08-17T10:04:17.749Z,57.15
2022-08-17T10:06:57.835Z,57.31
2022-08-17T10:09:50.446Z,57.44
2022-08-17T10:12:35.733Z,56.54
2022-08-17T10:15:16.032Z,56.70
2022-08-17T10:17:43.846Z,57.33
2022-08-17T10:20:17.294Z,59.17
2022-08-17T10:22:53.069Z,64.27
2022-08-17T10:25:24.845Z,68.58
2022-08-17T10:28:01.768Z,68.16
2022-08-17T10:30:31.941Z,71.92
2022-08-17T10:33:01.149Z,74.31
2022-08-17T10:35:34.578Z,76.20
2022-08-17T10:38:00.919Z,78.60
2022-08-17T10:40:46.589Z,79.41
2022-08-17T10:43:31.930Z,82.49
2022-08-17T10:46:17.105Z,85.60
2022-08-17T10:49:07.933Z,84.69
2022-08-17T10:51:39.336Z,82.97
2022-08-17T10:54:06.739Z,84.41
2022-08-17T10:56:47.495Z,82.23
2022-08-17T10:59:33.960Z,81.17
2022-08-17T11:02:18.133Z,80.27
2022-08-17T11:04:47.769Z,79.34
2022-08-17T11:07:30.774Z,79.88
2022-08-17T11:10:13.710Z,74.72
2022-08-17T11:12:40.238Z,69.21
2022-08-17T11:15:12.009Z,66.09
2022-08-17T11:17:48.852Z,62.84
2022-08-17T11:20:34.068Z,59.57
2022-08-17T11:23:14.797Z,57.37
2022-08-17T11:25:50.926Z,56.73
2022-08-17T11:28:26.195Z,56.63
2022-08-17T11:30:54.946Z,56.75
2022-08-17T11:33:30.412Z,57.07
2022-08-17T11:36:13.432Z,60.46
2022-08-17T11:38:51.159Z,61.93
2022-08-17T11:41:29.958Z,62.59
2022-08-17T11:44:02.858Z,62.27
2022-08-17T11:46:39.684Z,63.38
2022-08-17T11:49:12.027Z,62.87
2022-08-17T11:51:57.413Z,56.52
2022-08-17T11:54:34.676Z,52.20
2022-08-17T11:57:21.280Z,51.15
2022-08-17T11:59:47.881Z,48.38
2022-08-17T12:02:20.566Z,49.77
2022-08-17T12:05:12.078Z,49.63
2022-08-17T12:07:50.437Z,49.25
2022-08-17T12:10:19.089Z,49.41
2022-08-17T12:12:46.235Z,45.89
2022-08-17T12:15:18.948Z,46.36
2022-08-17T12:17:53.449Z,45.10
2022-08-17T12:20:28.461Z,43.08
2022-08-17T12:22:54.974Z,43.37
2022-08-17T12:25:25.576Z,43.79
2022-08-17T12:28:04.789Z,44.94
2022-08-17T12:30:32.344Z,42.00
2022-08-17T12:32:58.916Z,41.61
2022-08-17T12:35:32.544Z,41.15
2022-08-17T12:37:59.479Z,41.50
2022-08-17T12:40:27.834Z,40.36
2022-08-17T12:42:58.664Z,38.65
2022-08-17T12:45:26.697Z,39.00
2022-08-17T12:48:00.171Z,37.03
2022-08-17T12:50:28.207Z,37.39
2022-08-17T12:53:01.136Z,37.02
2022-08-17T12:55:32.610Z,37.38
2022-08-17T12:58:01.779Z,36.81
2022-08-17T13:00:28.707Z,37.41
2022-08-17T13:03:01.168Z,37.98
2022-08-17T13:05:30.816Z,37.14
2022-08-17T13:07:59.193Z,37.67
2022-08-17T13:10:32.553Z,36.81
2022-08-17T13:13:00.566Z,36.08
2022-08-17T13:15:33.439Z,35.35
2022-08-17T13:18:05.798Z,35.41
2022-08-17T13:20:34.333Z,35.24
2022-08-17T13:23:09.986Z,34.58
2022-08-17T13:25:38.443Z,34.09
2022-08-17T13:28:07.650Z,33.82
2022-08-17T13:30:34.471Z,33.88
2022-08-17T13:33:04.053Z,33.58
2022-08-17T13:35:39.918Z,34.02
2022-08-17T13:38:07.124Z,33.18
2022-08-17T13:40:42.918Z,33.09
2022-08-17T13:43:11.146Z,33.79
2022-08-17T13:45:46.138Z,34.18
2022-08-17T13:48:22.753Z,33.92
2022-08-17T13:51:03.700Z,33.89
2022-08-17T13:53:32.832Z,33.50
2022-08-17T13:56:02.597Z,33.59
2022-08-17T13:58:34.426Z,33.95
2022-08-17T14:01:19.726Z,32.26
2022-08-17T14:03:46.214Z,32.31
2022-08-17T14:06:51.359Z,32.84
2022-08-17T14:09:04.554Z,32.06
2022-08-17T14:11:33.059Z,31.72
2022-08-17T14:13:59.463Z,33.45
2022-08-17T14:16:25.901Z,33.43
2022-08-17T14:18:57.029Z,34.13
2022-08-17T14:21:23.993Z,34.59
2022-08-17T14:23:54.423Z,33.18
2022-08-17T14:26:21.730Z,33.92
2022-08-17T14:28:56.439Z,35.25
2022-08-17T14:31:23.544Z,34.10
2022-08-17T14:33:49.965Z,34.60
2022-08-17T14:36:16.444Z,34.48
2022-08-17T14:38:42.912Z,33.19
2022-08-17T14:41:09.230Z,32.90
2022-08-17T14:43:35.928Z,32.41
2022-08-17T14:46:02.313Z,33.18
2022-08-17T14:48:28.853Z,32.38
2022-08-17T14:50:55.565Z,31.56
2022-08-17T14:53:22.189Z,32.41
2022-08-17T14:55:50.184Z,32.49
2022-08-17T14:58:16.885Z,31.79
2022-08-17T15:00:43.321Z,32.10
2022-08-17T15:03:09.830Z,32.48
2022-08-17T15:05:37.633Z,32.20
2022-08-17T15:08:04.679Z,32.12
2022-08-17T15:10:31.359Z,31.38
2022-08-17T15:12:58.364Z,31.42
2022-08-17T15:15:24.861Z,32.20
2022-08-17T15:17:51.339Z,32.14
2022-08-17T15:20:20.578Z,33.03
2022-08-17T15:22:47.887Z,33.18
2022-08-17T15:25:14.894Z,33.13
2022-08-17T15:27:41.721Z,33.20
2022-08-17T15:30:08.823Z,33.90
2022-08-17T15:32:37.372Z,33.23
2022-08-17T15:35:04.656Z,33.25
2022-08-17T15:37:31.162Z,33.31
2022-08-17T15:39:58.129Z,33.64
2022-08-17T15:42:24.680Z,33.39
2022-08-17T15:44:51.111Z,32.71
2022-08-17T15:47:17.428Z,33.78
2022-08-17T15:49:44.512Z,32.80
2022-08-17T15:52:25.311Z,32.62
2022-08-17T15:54:53.346Z,33.35
2022-08-17T15:57:19.884Z,33.18
2022-08-17T15:59:47.475Z,33.47
2022-08-17T16:03:45.399Z,33.37
2022-08-17T16:05:11.038Z,34.42
2022-08-17T16:07:39.999Z,35.01
2022-08-17T16:10:07.144Z,34.39
2022-08-17T16:12:33.947Z,33.74
2022-08-17T16:15:00.953Z,34.70
2022-08-17T16:17:39.206Z,34.80
2022-08-17T16:20:07.749Z,35.84
2022-08-17T16:22:35.812Z,36.29
2022-08-17T16:25:04.298Z,37.55
2022-08-17T16:27:30.789Z,37.60
2022-08-17T16:29:57.411Z,38.22
2022-08-17T16:32:31.545Z,38.25
2022-08-17T16:35:07.585Z,38.31
2022-08-17T16:37:34.343Z,38.45
2022-08-17T16:40:01.603Z,39.61
2022-08-17T16:42:29.506Z,39.99
2022-08-17T16:44:57.161Z,40.05
2022-08-17T16:47:23.990Z,40.58
2022-08-17T16:49:50.385Z,39.54
2022-08-17T16:52:32.398Z,40.06
2022-08-17T16:54:59.728Z,40.33
2022-08-17T16:57:26.216Z,40.72
2022-08-17T16:59:53.208Z,39.60
2022-08-17T17:02:28.863Z,40.45
2022-08-17T17:05:00.962Z,40.93
2022-08-17T17:07:30.365Z,41.61
2022-08-17T17:09:56.776Z,41.82
2022-08-17T17:12:32.290Z,42.64
2022-08-17T17:15:11.115Z,42.46
2022-08-17T17:17:38.517Z,43.38
2022-08-17T17:20:24.534Z,43.48
2022-08-17T17:23:06.140Z,41.80
2022-08-17T17:25:37.289Z,41.34
2022-08-17T17:28:09.439Z,40.06
2022-08-17T17:30:44.724Z,40.26
2022-08-17T17:33:15.029Z,41.03
2022-08-17T17:35:47.834Z,41.35
2022-08-17T17:38:34.712Z,41.17
2022-08-17T17:41:02.955Z,41.50
2022-08-17T17:43:40.067Z,41.36
2022-08-17T17:46:27.052Z,41.96
2022-08-17T17:48:55.673Z,42.39
2022-08-17T17:52:06.806Z,42.60
2022-08-17T17:54:18.076Z,43.41
2022-08-17T17:56:53.725Z,43.61
2022-08-17T17:59:33.032Z,43.11
2022-08-17T18:02:06.982Z,43.38
2022-08-17T18:04:40.478Z,43.51
2022-08-17T18:07:16.099Z,43.17
2022-08-17T18:10:01.831Z,43.06
2022-08-17T18:12:52.554Z,42.98
2022-08-17T18:15:22.810Z,42.73
2022-08-17T18:18:07.847Z,42.88
2022-08-17T18:20:43.575Z,41.76
2022-08-17T18:23:23.138Z,42.15
2022-08-17T18:25:54.638Z,43.09
2022-08-17T18:28:33.270Z,43.12
2022-08-17T18:31:04.754Z,43.48
2022-08-17T18:33:31.309Z,43.83
2022-08-17T18:35:58.472Z,44.89
2022-08-17T18:38:30.771Z,44.75
2022-08-17T18:41:05.496Z,46.50
2022-08-17T18:43:44.240Z,47.63
2022-08-17T18:46:32.726Z,48.36
2022-08-17T18:49:00.947Z,48.93
2022-08-17T18:51:41.560Z,49.29
2022-08-17T18:54:09.739Z,49.59
2022-08-17T18:56:37.295Z,49.72
2022-08-17T18:59:06.213Z,50.58
2022-08-17T19:01:53.622Z,51.35
2022-08-17T19:04:34.111Z,51.24
2022-08-17T19:07:02.828Z,51.01
2022-08-17T19:09:34.432Z,51.35
2022-08-17T19:12:03.960Z,52.03
2022-08-17T19:14:31.101Z,52.38
2022-08-17T19:17:01.868Z,52.64
2022-08-17T19:19:38.460Z,52.73
2022-08-17T19:22:28.457Z,53.31
2022-08-17T19:25:03.736Z,53.98
2022-08-17T19:27:50.713Z,54.00
2022-08-17T19:30:24.090Z,54.46
2022-08-17T19:32:50.663Z,56.85
2022-08-17T19:35:18.342Z,56.62
2022-08-17T19:37:45.140Z,56.92
2022-08-17T19:40:11.725Z,57.21
2022-08-17T19:43:15.993Z,58.05
2022-08-17T19:45:42.509Z,59.25
2022-08-17T19:48:11.906Z,59.97
2022-08-17T19:50:43.894Z,60.78
2022-08-17T19:53:13.721Z,60.56
2022-08-17T19:55:58.814Z,60.86
2022-08-17T19:58:40.294Z,60.88
2022-08-17T20:01:12.051Z,60.99
2022-08-17T20:03:45.548Z,61.09
2022-08-17T20:06:13.733Z,62.40
2022-08-17T20:08:54.883Z,62.57
2022-08-17T20:11:23.775Z,63.71
2022-08-17T20:14:02.732Z,64.77
2022-08-17T20:16:30.805Z,65.63
2022-08-17T20:19:03.042Z,66.18
2022-08-17T20:21:33.041Z,66.49
2022-08-17T20:24:05.340Z,67.44
2022-08-17T20:26:35.852Z,67.72
2022-08-17T20:29:11.481Z,68.23
2022-08-17T20:31:53.105Z,69.31
2022-08-17T20:34:25.603Z,68.77
2022-08-17T20:37:15.327Z,72.44
2022-08-17T20:39:42.286Z,73.89
2022-08-17T20:42:08.822Z,75.55
2022-08-17T20:44:37.132Z,76.79
2022-08-17T20:47:09.931Z,77.25
2022-08-17T20:49:48.297Z,77.73
2022-08-17T20:52:34.706Z,76.40
2022-08-17T20:55:01.979Z,76.87
2022-08-17T20:57:31.017Z,75.40
2022-08-17T20:59:59.209Z,75.14
2022-08-17T21:02:26.596Z,74.81
2022-08-17T21:04:53.009Z,73.30
2022-08-17T21:07:54.385Z,73.45
2022-08-17T21:10:23.678Z,73.40
2022-08-17T21:12:52.877Z,73.46
2022-08-17T21:15:21.992Z,72.57
2022-08-17T21:17:50.224Z,71.94
2022-08-17T21:20:32.270Z,72.31
2022-08-17T21:22:59.237Z,73.40
2022-08-17T21:25:43.224Z,73.64
2022-08-17T21:28:34.112Z,74.30
2022-08-17T21:31:01.832Z,75.46
2022-08-17T21:33:32.360Z,77.19
2022-08-17T21:36:04.550Z,77.91
2022-08-17T21:38:35.765Z,79.23
2022-08-17T21:41:02.302Z,79.61
2022-08-17T21:43:30.071Z,80.17
2022-08-17T21:45:59.787Z,80.45
2022-08-17T21:48:27.432Z,80.46
2022-08-17T21:50:56.886Z,81.17
2022-08-17T21:53:46.625Z,80.57
2022-08-17T21:56:19.763Z,78.88
2022-08-17T21:58:48.541Z,76.47
2022-08-17T22:01:44.349Z,75.86
2022-08-17T22:04:24.668Z,76.04
2022-08-17T22:06:52.261Z,78.03
2022-08-17T22:09:31.711Z,79.12
2022-08-17T22:11:58.409Z,81.73
2022-08-17T22:14:27.715Z,83.46
2022-08-17T22:17:14.143Z,82.63
2022-08-17T22:19:40.754Z,86.55
2022-08-17T22:22:09.066Z,88.38
2022-08-17T22:24:36.195Z,87.86
2022-08-17T22:27:02.648Z,89.04
2022-08-17T22:29:47.873Z,89.21
2022-08-17T22:32:32.941Z,90.42
2022-08-17T22:35:17.645Z,95.08
2022-08-17T22:37:44.751Z,98.00
2022-08-17T22:40:23.314Z,97.58
2022-08-17T22:42:49.728Z,100.00
2022-08-17T22:45:16.335Z,100.00
2022-08-17T22:47:44.123Z,100.00
2022-08-17T22:50:15.213Z,100.00
2022-08-17T22:52:44.907Z,100.00
2022-08-17T22:55:16.830Z,100.00
2022-08-17T22:57:45.256Z,100.00
2022-08-17T23:00:28.277Z,100.00
2022-08-17T23:03:23.979Z,100.00
2022-08-17T23:06:07.443Z,100.00
2022-08-17T23:08:34.760Z,100.00
2022-08-17T23:11:01.867Z,100.00
2022-08-17T23:13:28.478Z,100.00
2022-08-17T23:15:54.906Z,100.00
2022-08-17T23:18:21.283Z,100.00
2022-08-17T23:20:47.793Z,100.00
2022-08-17T23:23:14.815Z,100.00
2022-08-17T23:25:41.431Z,100.00
2022-08-17T23:28:07.941Z,100.00
2022-08-17T23:30:36.752Z,100.00
2022-08-17T23:33:08.779Z,100.00
2022-08-17T23:35:39.736Z,100.00
2022-08-17T23:38:07.200Z,100.00
2022-08-17T23:40:33.571Z,100.00
2022-08-17T23:43:00.087Z,100.00
2022-08-17T23:45:31.127Z,100.00
2022-08-17T23:47:57.917Z,100.00
2022-08-17T23:50:24.808Z,100.00
2022-08-17T23:52:56.323Z,100.00
2022-08-17T23:55:23.167Z,100.00
2022-08-17T23:57:49.664Z,100.00
